Auburn, Alabama
Current Conditions -  °F | °C
As of 8:15 AM on Tuesday 21 Oct 2014 (Local Time) from KAUO Reporting Station
Clear Clear  
Wind Chill: 57°   Ceiling: Unl
Heat Index: 57°   Visibility: 10mi
Dew Point: 50°   Wind: 5mph
Humidity: 77%   Direction: 20°NNE
Pressure: 30.07"   Gusts: NA
Location:  32.61°N, 85.48°W
Report Text: KAUO 211315Z AUTO 02004KT 10SM CLR 14/10 A3007 RMK AO1
Loading
Personal Weather Stations






























Interactive Weather Map
Tropical Storm Tracking
New forecast layout! Learn more

10-Day Weather Forecast

Advertisements
Track Severe Weather on mobile